sensor_id;sensor_type;location;lat;lon;timestamp;pressure;altitude;pressure_sealevel;temperature;humidity
77631;BME280;66798;47.370;8.552;2023-04-19T05:25:36;96897.50;;;9.59;71.61
77631;BME280;66798;47.370;8.552;2023-04-19T05:28:03;96895.84;;;9.47;71.97
77631;BME280;66798;47.370;8.552;2023-04-19T05:30:28;96887.78;;;9.59;71.66
77631;BME280;66798;47.370;8.552;2023-04-19T05:32:54;96896.00;;;9.35;72.46
77631;BME280;66798;47.370;8.552;2023-04-19T05:35:19;96898.56;;;9.25;72.99
77631;BME280;66798;47.370;8.552;2023-04-19T05:37:45;96900.88;;;9.54;71.75
77631;BME280;66798;47.370;8.552;2023-04-19T05:40:11;96901.13;;;9.52;71.26
77631;BME280;66798;47.370;8.552;2023-04-19T05:42:38;96900.34;;;9.52;71.79
77631;BME280;66798;47.370;8.552;2023-04-19T05:45:04;96902.22;;;9.62;71.14
77631;BME280;66798;47.370;8.552;2023-04-19T05:47:30;96900.41;;;9.67;70.94
77631;BME280;66798;47.370;8.552;2023-04-19T05:49:56;96904.88;;;9.67;71.04
77631;BME280;66798;47.370;8.552;2023-04-19T05:52:21;96901.25;;;9.68;71.10
77631;BME280;66798;47.370;8.552;2023-04-19T05:54:47;96900.72;;;9.71;70.57
77631;BME280;66798;47.370;8.552;2023-04-19T05:57:12;96902.22;;;9.62;71.28
77631;BME280;66798;47.370;8.552;2023-04-19T05:59:38;96896.19;;;9.61;71.03
77631;BME280;66798;47.370;8.552;2023-04-19T06:02:03;96909.59;;;9.65;70.98
77631;BME280;66798;47.370;8.552;2023-04-19T06:04:29;96905.41;;;9.64;70.96
77631;BME280;66798;47.370;8.552;2023-04-19T06:06:54;96903.16;;;9.45;71.86
77631;BME280;66798;47.370;8.552;2023-04-19T06:09:20;96908.81;;;9.64;70.70
77631;BME280;66798;47.370;8.552;2023-04-19T06:11:45;96906.16;;;9.59;71.22
77631;BME280;66798;47.370;8.552;2023-04-19T06:14:11;96907.44;;;9.56;71.39
77631;BME280;66798;47.370;8.552;2023-04-19T06:16:40;96900.72;;;9.71;70.60
77631;BME280;66798;47.370;8.552;2023-04-19T06:19:05;96909.06;;;9.63;70.98
77631;BME280;66798;47.370;8.552;2023-04-19T06:21:32;96911.16;;;9.61;71.22
77631;BME280;66798;47.370;8.552;2023-04-19T06:23:58;96907.16;;;9.53;71.27
77631;BME280;66798;47.370;8.552;2023-04-19T06:26:23;96913.50;;;9.57;70.96
77631;BME280;66798;47.370;8.552;2023-04-19T06:28:49;96916.19;;;9.67;70.77
77631;BME280;66798;47.370;8.552;2023-04-19T06:31:14;96913.59;;;9.72;70.27
77631;BME280;66798;47.370;8.552;2023-04-19T06:33:40;96915.94;;;9.69;70.87
77631;BME280;66798;47.370;8.552;2023-04-19T06:36:05;96916.66;;;9.59;70.91
77631;BME280;66798;47.370;8.552;2023-04-19T06:38:31;96917.56;;;9.75;70.65
77631;BME280;66798;47.370;8.552;2023-04-19T06:40:56;96915.44;;;9.77;71.04
77631;BME280;66798;47.370;8.552;2023-04-19T06:43:22;96909.97;;;9.84;70.03
77631;BME280;66798;47.370;8.552;2023-04-19T06:45:48;96913.94;;;9.86;69.97
77631;BME280;66798;47.370;8.552;2023-04-19T06:48:13;96912.91;;;9.87;70.06
77631;BME280;66798;47.370;8.552;2023-04-19T06:50:39;96915.22;;;9.78;70.63
77631;BME280;66798;47.370;8.552;2023-04-19T06:53:04;96919.00;;;9.98;69.59
77631;BME280;66798;47.370;8.552;2023-04-19T06:55:30;96923.28;;;9.67;70.77
77631;BME280;66798;47.370;8.552;2023-04-19T06:57:56;96921.28;;;9.84;70.60
77631;BME280;66798;47.370;8.552;2023-04-19T07:00:22;96925.84;;;9.94;69.93
77631;BME280;66798;47.370;8.552;2023-04-19T07:02:48;96920.44;;;10.21;69.28
77631;BME280;66798;47.370;8.552;2023-04-19T07:05:14;96916.50;;;10.18;68.88
77631;BME280;66798;47.370;8.552;2023-04-19T07:07:40;96920.88;;;10.08;69.51
77631;BME280;66798;47.370;8.552;2023-04-19T07:10:07;96928.09;;;9.80;70.09
77631;BME280;66798;47.370;8.552;2023-04-19T07:12:32;96924.22;;;9.88;70.74
77631;BME280;66798;47.370;8.552;2023-04-19T07:14:58;96926.25;;;10.23;69.50
77631;BME280;66798;47.370;8.552;2023-04-19T07:17:23;96925.13;;;10.09;70.01
77631;BME280;66798;47.370;8.552;2023-04-19T07:19:49;96921.84;;;10.39;68.26
77631;BME280;66798;47.370;8.552;2023-04-19T07:22:14;96915.56;;;10.40;68.37
77631;BME280;66798;47.370;8.552;2023-04-19T07:24:42;96920.03;;;9.92;70.06
77631;BME280;66798;47.370;8.552;2023-04-19T07:27:08;96919.78;;;10.46;68.56
77631;BME280;66798;47.370;8.552;2023-04-19T07:29:34;96925.09;;;10.04;70.46
77631;BME280;66798;47.370;8.552;2023-04-19T07:31:59;96921.28;;;9.84;70.29
77631;BME280;66798;47.370;8.552;2023-04-19T07:34:26;96920.78;;;10.30;69.16
77631;BME280;66798;47.370;8.552;2023-04-19T07:36:51;96908.97;;;10.32;68.63
77631;BME280;66798;47.370;8.552;2023-04-19T07:39:17;96916.38;;;10.46;67.80
77631;BME280;66798;47.370;8.552;2023-04-19T07:41:43;96914.97;;;9.80;69.88
77631;BME280;66798;47.370;8.552;2023-04-19T07:44:09;96908.81;;;10.12;69.01
77631;BME280;66798;47.370;8.552;2023-04-19T07:46:35;96904.28;;;10.50;67.73
77631;BME280;66798;47.370;8.552;2023-04-19T07:49:01;96912.22;;;10.65;66.77
77631;BME280;66798;47.370;8.552;2023-04-19T07:51:27;96909.09;;;10.83;66.62
77631;BME280;66798;47.370;8.552;2023-04-19T07:53:53;96902.75;;;10.69;67.02
77631;BME280;66798;47.370;8.552;2023-04-19T07:56:18;96911.44;;;10.75;66.54
77631;BME280;66798;47.370;8.552;2023-04-19T07:58:44;96904.09;;;10.77;66.69
77631;BME280;66798;47.370;8.552;2023-04-19T08:01:10;96906.72;;;10.82;66.04
77631;BME280;66798;47.370;8.552;2023-04-19T08:03:36;96910.44;;;10.86;65.66
77631;BME280;66798;47.370;8.552;2023-04-19T08:06:03;96909.09;;;10.78;65.95
77631;BME280;66798;47.370;8.552;2023-04-19T08:08:30;96906.47;;;10.78;65.83
77631;BME280;66798;47.370;8.552;2023-04-19T08:10:55;96905.44;;;10.84;65.62
77631;BME280;66798;47.370;8.552;2023-04-19T08:13:21;96907.03;;;10.91;65.51
77631;BME280;66798;47.370;8.552;2023-04-19T08:15:47;96902.59;;;11.37;64.63
77631;BME280;66798;47.370;8.552;2023-04-19T08:18:12;96898.34;;;10.80;66.32
77631;BME280;66798;47.370;8.552;2023-04-19T08:20:38;96899.44;;;11.35;64.67
77631;BME280;66798;47.370;8.552;2023-04-19T08:23:07;96897.56;;;11.87;62.70
77631;BME280;66798;47.370;8.552;2023-04-19T08:25:33;96896.97;;;12.05;62.67
77631;BME280;66798;47.370;8.552;2023-04-19T08:27:58;96894.94;;;11.36;63.93
77631;BME280;66798;47.370;8.552;2023-04-19T08:30:25;96902.03;;;11.56;63.30
77631;BME280;66798;47.370;8.552;2023-04-19T08:32:51;96904.38;;;10.70;65.71
77631;BME280;66798;47.370;8.552;2023-04-19T08:35:16;96905.38;;;10.54;66.86
77631;BME280;66798;47.370;8.552;2023-04-19T08:37:42;96908.63;;;11.17;64.88
77631;BME280;66798;47.370;8.552;2023-04-19T08:40:07;96900.22;;;11.56;63.74
77631;BME280;66798;47.370;8.552;2023-04-19T08:42:34;96904.88;;;12.05;61.87
77631;BME280;66798;47.370;8.552;2023-04-19T08:45:01;96895.47;;;11.02;64.63
77631;BME280;66798;47.370;8.552;2023-04-19T08:47:32;96906.00;;;11.17;64.15
77631;BME280;66798;47.370;8.552;2023-04-19T08:50:04;96892.06;;;11.01;64.54
77631;BME280;66798;47.370;8.552;2023-04-19T08:52:35;96894.94;;;11.61;62.50
77631;BME280;66798;47.370;8.552;2023-04-19T08:55:05;96904.97;;;11.13;63.80
77631;BME280;66798;47.370;8.552;2023-04-19T08:57:32;96900.22;;;11.36;63.92
77631;BME280;66798;47.370;8.552;2023-04-19T09:00:02;96890.22;;;11.43;62.88
77631;BME280;66798;47.370;8.552;2023-04-19T09:02:51;96891.53;;;11.40;63.33
77631;BME280;66798;47.370;8.552;2023-04-19T09:05:20;96896.50;;;10.96;64.92
77631;BME280;66798;47.370;8.552;2023-04-19T09:07:46;96891.78;;;11.59;62.63
77631;BME280;66798;47.370;8.552;2023-04-19T09:10:16;96892.31;;;11.56;63.15
77631;BME280;66798;47.370;8.552;2023-04-19T09:12:42;96886.00;;;11.47;63.30
77631;BME280;66798;47.370;8.552;2023-04-19T09:15:08;96888.03;;;12.01;61.86
77631;BME280;66798;47.370;8.552;2023-04-19T09:17:35;96885.91;;;12.68;60.22
77631;BME280;66798;47.370;8.552;2023-04-19T09:20:03;96886.75;;;11.63;63.75
77631;BME280;66798;47.370;8.552;2023-04-19T09:22:29;96883.66;;;12.41;59.96
77631;BME280;66798;47.370;8.552;2023-04-19T09:24:57;96886.28;;;12.91;58.57
77631;BME280;66798;47.370;8.552;2023-04-19T09:29:58;96878.53;;;12.00;60.77
77631;BME280;66798;47.370;8.552;2023-04-19T09:32:25;96879.84;;;12.03;62.07
77631;BME280;66798;47.370;8.552;2023-04-19T09:34:56;96873.47;;;12.19;60.97
77631;BME280;66798;47.370;8.552;2023-04-19T09:37:23;96872.28;;;12.46;59.86
77631;BME280;66798;47.370;8.552;2023-04-19T09:39:49;96874.00;;;13.10;58.03
77631;BME280;66798;47.370;8.552;2023-04-19T09:42:15;96879.13;;;11.87;61.19
77631;BME280;66798;47.370;8.552;2023-04-19T09:44:54;96869.59;;;11.81;61.73
77631;BME280;66798;47.370;8.552;2023-04-19T09:47:22;96869.44;;;12.32;60.39
77631;BME280;66798;47.370;8.552;2023-04-19T09:50:06;96867.72;;;12.67;60.30
77631;BME280;66798;47.370;8.552;2023-04-19T09:52:32;96856.00;;;12.33;60.09
77631;BME280;66798;47.370;8.552;2023-04-19T09:55:05;96856.22;;;11.41;62.81
77631;BME280;66798;47.370;8.552;2023-04-19T09:57:32;96862.19;;;12.63;60.02
77631;BME280;66798;47.370;8.552;2023-04-19T09:59:59;96852.41;;;12.14;61.16
77631;BME280;66798;47.370;8.552;2023-04-19T10:02:30;96851.34;;;12.65;60.22
77631;BME280;66798;47.370;8.552;2023-04-19T10:04:58;96855.44;;;12.86;57.90
77631;BME280;66798;47.370;8.552;2023-04-19T10:07:27;96860.97;;;13.24;58.03
77631;BME280;66798;47.370;8.552;2023-04-19T10:09:54;96847.03;;;13.18;57.72
77631;BME280;66798;47.370;8.552;2023-04-19T10:12:25;96847.75;;;13.29;57.82
77631;BME280;66798;47.370;8.552;2023-04-19T10:14:54;96839.97;;;13.43;56.36
77631;BME280;66798;47.370;8.552;2023-04-19T10:17:23;96845.41;;;12.88;58.39
77631;BME280;66798;47.370;8.552;2023-04-19T10:19:58;96841.91;;;12.59;58.73
77631;BME280;66798;47.370;8.552;2023-04-19T10:22:26;96839.16;;;12.74;58.40
77631;BME280;66798;47.370;8.552;2023-04-19T10:25:19;96838.47;;;12.98;58.15
77631;BME280;66798;47.370;8.552;2023-04-19T10:27:52;96845.81;;;13.40;56.99
77631;BME280;66798;47.370;8.552;2023-04-19T10:30:22;96839.09;;;13.18;57.10
77631;BME280;66798;47.370;8.552;2023-04-19T10:32:53;96831.22;;;12.29;59.76
77631;BME280;66798;47.370;8.552;2023-04-19T10:35:23;96830.94;;;13.15;58.06
77631;BME280;66798;47.370;8.552;2023-04-19T10:38:11;96834.13;;;13.46;56.58
77631;BME280;66798;47.370;8.552;2023-04-19T10:40:54;96826.69;;;13.48;57.55
77631;BME280;66798;47.370;8.552;2023-04-19T10:43:26;96826.16;;;13.17;57.60
77631;BME280;66798;47.370;8.552;2023-04-19T10:45:52;96822.19;;;13.20;57.42
77631;BME280;66798;47.370;8.552;2023-04-19T10:51:15;96822.06;;;12.66;58.90
77631;BME280;66798;47.370;8.552;2023-04-19T10:56:10;96809.44;;;13.27;57.11
77631;BME280;66798;47.370;8.552;2023-04-19T11:01:40;96811.72;;;13.09;57.50
77631;BME280;66798;47.370;8.552;2023-04-19T11:04:15;96800.91;;;13.40;56.67
77631;BME280;66798;47.370;8.552;2023-04-19T11:09:22;96801.56;;;12.92;58.45
77631;BME280;66798;47.370;8.552;2023-04-19T11:11:48;96797.75;;;13.04;57.77
77631;BME280;66798;47.370;8.552;2023-04-19T11:14:15;96797.00;;;12.19;60.05
77631;BME280;66798;47.370;8.552;2023-04-19T11:16:41;96783.94;;;12.43;59.79
77631;BME280;66798;47.370;8.552;2023-04-19T11:19:07;96792.81;;;13.26;57.13
77631;BME280;66798;47.370;8.552;2023-04-19T11:21:32;96791.97;;;13.02;58.39
77631;BME280;66798;47.370;8.552;2023-04-19T11:24:11;96776.44;;;13.53;56.95
77631;BME280;66798;47.370;8.552;2023-04-19T11:26:36;96785.75;;;12.87;58.82
77631;BME280;66798;47.370;8.552;2023-04-19T11:29:05;96775.59;;;13.34;57.28
77631;BME280;66798;47.370;8.552;2023-04-19T11:31:34;96774.31;;;13.55;56.42
77631;BME280;66798;47.370;8.552;2023-04-19T11:34:02;96768.47;;;13.83;56.03
77631;BME280;66798;47.370;8.552;2023-04-19T11:36:27;96770.94;;;14.17;55.44
77631;BME280;66798;47.370;8.552;2023-04-19T11:38:53;96767.47;;;13.25;57.63
77631;BME280;66798;47.370;8.552;2023-04-19T11:41:19;96761.47;;;13.44;56.35
77631;BME280;66798;47.370;8.552;2023-04-19T11:43:45;96758.38;;;13.85;55.93
77631;BME280;66798;47.370;8.552;2023-04-19T11:46:12;96759.50;;;14.21;54.98
77631;BME280;66798;47.370;8.552;2023-04-19T11:48:49;96760.81;;;13.81;56.02
77631;BME280;66798;47.370;8.552;2023-04-19T11:51:16;96760.56;;;14.58;53.94
77631;BME280;66798;47.370;8.552;2023-04-19T11:53:41;96754.06;;;14.13;54.28
77631;BME280;66798;47.370;8.552;2023-04-19T11:56:08;96757.25;;;13.91;55.02
77631;BME280;66798;47.370;8.552;2023-04-19T11:58:44;96756.75;;;14.08;54.93
77631;BME280;66798;47.370;8.552;2023-04-19T12:01:18;96745.06;;;14.52;53.63
77631;BME280;66798;47.370;8.552;2023-04-19T12:03:49;96744.13;;;14.05;54.69
77631;BME280;66798;47.370;8.552;2023-04-19T12:06:27;96737.47;;;14.64;53.15
77631;BME280;66798;47.370;8.552;2023-04-19T12:08:55;96745.25;;;14.74;53.02
77631;BME280;66798;47.370;8.552;2023-04-19T12:11:23;96740.97;;;14.40;53.94
77631;BME280;66798;47.370;8.552;2023-04-19T12:14:10;96742.00;;;14.26;53.77
77631;BME280;66798;47.370;8.552;2023-04-19T12:16:36;96736.75;;;14.39;54.00
77631;BME280;66798;47.370;8.552;2023-04-19T12:19:18;96729.81;;;14.62;52.42
77631;BME280;66798;47.370;8.552;2023-04-19T12:21:47;96735.81;;;14.49;51.65
77631;BME280;66798;47.370;8.552;2023-04-19T12:24:16;96732.63;;;14.14;53.35
77631;BME280;66798;47.370;8.552;2023-04-19T12:26:55;96730.97;;;14.37;51.94
77631;BME280;66798;47.370;8.552;2023-04-19T12:29:21;96730.03;;;13.18;55.38
77631;BME280;66798;47.370;8.552;2023-04-19T12:31:47;96729.03;;;12.85;56.42
77631;BME280;66798;47.370;8.552;2023-04-19T12:34:15;96726.47;;;14.00;53.57
77631;BME280;66798;47.370;8.552;2023-04-19T12:36:41;96720.59;;;13.60;55.53
77631;BME280;66798;47.370;8.552;2023-04-19T12:39:06;96722.81;;;14.34;53.43
77631;BME280;66798;47.370;8.552;2023-04-19T12:41:32;96719.63;;;14.51;53.44
77631;BME280;66798;47.370;8.552;2023-04-19T12:43:58;96721.47;;;14.88;51.63
77631;BME280;66798;47.370;8.552;2023-04-19T12:46:23;96718.38;;;15.41;49.38
77631;BME280;66798;47.370;8.552;2023-04-19T12:48:49;96709.38;;;15.42;48.45
77631;BME280;66798;47.370;8.552;2023-04-19T12:51:14;96712.06;;;14.96;51.58
77631;BME280;66798;47.370;8.552;2023-04-19T12:53:47;96715.16;;;15.31;50.55
77631;BME280;66798;47.370;8.552;2023-04-19T12:56:13;96705.81;;;15.33;51.42
77631;BME280;66798;47.370;8.552;2023-04-19T12:58:40;96700.88;;;15.13;50.37
77631;BME280;66798;47.370;8.552;2023-04-19T13:01:05;96705.97;;;14.95;51.28
77631;BME280;66798;47.370;8.552;2023-04-19T13:03:31;96702.00;;;14.27;52.71
77631;BME280;66798;47.370;8.552;2023-04-19T13:06:00;96704.13;;;14.25;52.99
77631;BME280;66798;47.370;8.552;2023-04-19T13:08:26;96701.50;;;13.44;55.35
77631;BME280;66798;47.370;8.552;2023-04-19T13:10:51;96707.28;;;12.93;56.72
77631;BME280;66798;47.370;8.552;2023-04-19T13:13:17;96692.91;;;12.80;57.16
77631;BME280;66798;47.370;8.552;2023-04-19T13:15:42;96692.78;;;12.90;56.97
77631;BME280;66798;47.370;8.552;2023-04-19T13:18:09;96685.81;;;12.75;57.74
77631;BME280;66798;47.370;8.552;2023-04-19T13:20:35;96686.13;;;12.69;58.14
77631;BME280;66798;47.370;8.552;2023-04-19T13:23:00;96680.78;;;12.45;58.90
77631;BME280;66798;47.370;8.552;2023-04-19T13:25:26;96684.16;;;12.50;58.47
77631;BME280;66798;47.370;8.552;2023-04-19T13:27:51;96677.94;;;12.36;58.85
77631;BME280;66798;47.370;8.552;2023-04-19T13:30:17;96681.00;;;12.48;58.87
77631;BME280;66798;47.370;8.552;2023-04-19T13:32:42;96681.78;;;12.54;58.53
77631;BME280;66798;47.370;8.552;2023-04-19T13:35:08;96672.97;;;12.64;57.72
77631;BME280;66798;47.370;8.552;2023-04-19T13:37:33;96672.88;;;12.45;57.97
77631;BME280;66798;47.370;8.552;2023-04-19T13:39:59;96677.78;;;12.22;58.94
77631;BME280;66798;47.370;8.552;2023-04-19T13:42:24;96665.78;;;12.40;58.37
77631;BME280;66798;47.370;8.552;2023-04-19T13:44:50;96661.59;;;12.34;59.21
77631;BME280;66798;47.370;8.552;2023-04-19T13:47:15;96660.50;;;12.40;58.66
77631;BME280;66798;47.370;8.552;2023-04-19T13:49:41;96657.78;;;12.50;57.98
77631;BME280;66798;47.370;8.552;2023-04-19T13:52:06;96651.09;;;12.58;57.80
77631;BME280;66798;47.370;8.552;2023-04-19T13:54:31;96646.66;;;12.53;58.53
77631;BME280;66798;47.370;8.552;2023-04-19T13:56:57;96646.41;;;12.55;57.76
77631;BME280;66798;47.370;8.552;2023-04-19T13:59:23;96639.31;;;12.50;58.49
77631;BME280;66798;47.370;8.552;2023-04-19T14:01:50;96645.81;;;12.63;57.41
77631;BME280;66798;47.370;8.552;2023-04-19T14:04:16;96639.38;;;12.99;56.80
77631;BME280;66798;47.370;8.552;2023-04-19T14:06:42;96628.75;;;13.04;55.64
77631;BME280;66798;47.370;8.552;2023-04-19T14:09:07;96624.47;;;13.08;55.16
77631;BME280;66798;47.370;8.552;2023-04-19T14:11:33;96627.19;;;13.03;55.49
77631;BME280;66798;47.370;8.552;2023-04-19T14:13:58;96624.66;;;13.16;55.10
77631;BME280;66798;47.370;8.552;2023-04-19T14:16:24;96618.22;;;13.23;55.13
77631;BME280;66798;47.370;8.552;2023-04-19T14:18:50;96612.81;;;13.14;55.00
77631;BME280;66798;47.370;8.552;2023-04-19T14:21:16;96608.63;;;13.08;55.40
77631;BME280;66798;47.370;8.552;2023-04-19T14:23:42;96609.16;;;13.10;55.04
77631;BME280;66798;47.370;8.552;2023-04-19T14:26:07;96606.78;;;12.84;55.62
77631;BME280;66798;47.370;8.552;2023-04-19T14:28:32;96595.88;;;12.91;55.11
77631;BME280;66798;47.370;8.552;2023-04-19T14:30:58;96598.59;;;13.53;53.81
77631;BME280;66798;47.370;8.552;2023-04-19T14:33:23;96603.53;;;12.92;55.59
77631;BME280;66798;47.370;8.552;2023-04-19T14:35:49;96591.94;;;13.36;54.28
77631;BME280;66798;47.370;8.552;2023-04-19T14:38:14;96592.81;;;13.51;54.07
77631;BME280;66798;47.370;8.552;2023-04-19T14:40:40;96594.69;;;14.21;52.85
77631;BME280;66798;47.370;8.552;2023-04-19T14:43:05;96588.66;;;14.81;49.97
77631;BME280;66798;47.370;8.552;2023-04-19T14:45:31;96585.94;;;14.20;51.85
77631;BME280;66798;47.370;8.552;2023-04-19T14:47:56;96578.19;;;14.43;50.88
77631;BME280;66798;47.370;8.552;2023-04-19T14:50:22;96578.59;;;14.50;49.24
77631;BME280;66798;47.370;8.552;2023-04-19T14:52:47;96579.00;;;14.24;50.07
77631;BME280;66798;47.370;8.552;2023-04-19T14:55:12;96583.19;;;14.12;50.22
77631;BME280;66798;47.370;8.552;2023-04-19T14:57:38;96579.47;;;14.13;50.95
77631;BME280;66798;47.370;8.552;2023-04-19T15:00:04;96574.81;;;14.23;50.35
77631;BME280;66798;47.370;8.552;2023-04-19T15:02:29;96571.28;;;14.28;49.77
77631;BME280;66798;47.370;8.552;2023-04-19T15:04:55;96579.19;;;14.14;50.26
77631;BME280;66798;47.370;8.552;2023-04-19T15:07:20;96572.25;;;14.18;50.69
77631;BME280;66798;47.370;8.552;2023-04-19T15:09:46;96571.34;;;14.09;50.92
77631;BME280;66798;47.370;8.552;2023-04-19T15:12:12;96566.59;;;14.06;50.62
77631;BME280;66798;47.370;8.552;2023-04-19T15:14:37;96567.31;;;12.98;52.58
77631;BME280;66798;47.370;8.552;2023-04-19T15:17:03;96566.31;;;13.75;50.97
77631;BME280;66798;47.370;8.552;2023-04-19T15:19:29;96556.38;;;13.29;51.69
77631;BME280;66798;47.370;8.552;2023-04-19T15:21:55;96561.34;;;13.11;52.65
77631;BME280;66798;47.370;8.552;2023-04-19T15:24:21;96563.13;;;13.92;50.48
77631;BME280;66798;47.370;8.552;2023-04-19T15:26:46;96556.69;;;13.98;50.49
77631;BME280;66798;47.370;8.552;2023-04-19T15:29:12;96563.28;;;14.47;48.93
77631;BME280;66798;47.370;8.552;2023-04-19T15:31:37;96560.03;;;14.36;49.22
77631;BME280;66798;47.370;8.552;2023-04-19T15:34:03;96569.47;;;14.42;49.48
77631;BME280;66798;47.370;8.552;2023-04-19T15:36:29;96558.13;;;14.56;49.49
77631;BME280;66798;47.370;8.552;2023-04-19T15:38:55;96556.97;;;14.62;48.66
77631;BME280;66798;47.370;8.552;2023-04-19T15:41:21;96561.31;;;14.39;49.02
77631;BME280;66798;47.370;8.552;2023-04-19T15:43:47;96549.41;;;14.22;49.18
77631;BME280;66798;47.370;8.552;2023-04-19T15:46:13;96554.63;;;14.28;48.97
77631;BME280;66798;47.370;8.552;2023-04-19T15:48:40;96554.81;;;14.31;49.47
77631;BME280;66798;47.370;8.552;2023-04-19T15:51:06;96546.88;;;14.64;49.17
77631;BME280;66798;47.370;8.552;2023-04-19T15:53:33;96553.53;;;14.89;48.17
77631;BME280;66798;47.370;8.552;2023-04-19T15:55:59;96552.06;;;14.69;48.01
77631;BME280;66798;47.370;8.552;2023-04-19T15:58:24;96547.78;;;14.40;49.28
77631;BME280;66798;47.370;8.552;2023-04-19T16:00:51;96546.28;;;14.95;47.73
77631;BME280;66798;47.370;8.552;2023-04-19T16:03:16;96549.09;;;14.84;47.83
77631;BME280;66798;47.370;8.552;2023-04-19T16:05:41;96543.88;;;14.38;48.85
77631;BME280;66798;47.370;8.552;2023-04-19T16:08:09;96546.53;;;14.38;49.44
77631;BME280;66798;47.370;8.552;2023-04-19T16:10:36;96543.59;;;14.53;49.06
77631;BME280;66798;47.370;8.552;2023-04-19T16:13:02;96550.69;;;14.58;48.92
77631;BME280;66798;47.370;8.552;2023-04-19T16:15:29;96540.00;;;14.16;50.19
77631;BME280;66798;47.370;8.552;2023-04-19T16:17:54;96544.53;;;14.16;50.01
77631;BME280;66798;47.370;8.552;2023-04-19T16:20:20;96540.81;;;13.03;52.97
77631;BME280;66798;47.370;8.552;2023-04-19T16:22:46;96541.47;;;13.57;52.66
77631;BME280;66798;47.370;8.552;2023-04-19T16:25:12;96550.00;;;13.87;51.95
77631;BME280;66798;47.370;8.552;2023-04-19T16:27:40;96538.22;;;13.22;52.64
77631;BME280;66798;47.370;8.552;2023-04-19T16:30:10;96541.25;;;13.34;52.75
77631;BME280;66798;47.370;8.552;2023-04-19T16:32:36;96537.78;;;13.15;52.62
77631;BME280;66798;47.370;8.552;2023-04-19T16:35:03;96538.94;;;13.66;51.40
77631;BME280;66798;47.370;8.552;2023-04-19T16:37:29;96535.09;;;12.96;53.24
77631;BME280;66798;47.370;8.552;2023-04-19T16:39:54;96537.06;;;13.09;52.94
77631;BME280;66798;47.370;8.552;2023-04-19T16:42:20;96527.72;;;12.74;53.56
77631;BME280;66798;47.370;8.552;2023-04-19T16:44:45;96529.06;;;13.14;52.88
77631;BME280;66798;47.370;8.552;2023-04-19T16:47:11;96526.50;;;13.09;52.68
77631;BME280;66798;47.370;8.552;2023-04-19T16:49:36;96520.56;;;13.17;52.27
77631;BME280;66798;47.370;8.552;2023-04-19T16:52:02;96515.38;;;13.12;52.87
77631;BME280;66798;47.370;8.552;2023-04-19T16:54:27;96512.81;;;13.26;52.06
77631;BME280;66798;47.370;8.552;2023-04-19T16:56:53;96516.38;;;13.16;52.24
77631;BME280;66798;47.370;8.552;2023-04-19T16:59:18;96502.66;;;12.95;52.81
77631;BME280;66798;47.370;8.552;2023-04-19T17:01:43;96509.56;;;13.10;52.18
77631;BME280;66798;47.370;8.552;2023-04-19T17:04:09;96509.66;;;13.24;52.30
77631;BME280;66798;47.370;8.552;2023-04-19T17:06:34;96511.53;;;13.24;52.48
77631;BME280;66798;47.370;8.552;2023-04-19T17:09:00;96511.59;;;13.18;52.00
77631;BME280;66798;47.370;8.552;2023-04-19T17:11:30;96517.09;;;12.79;53.36
77631;BME280;66798;47.370;8.552;2023-04-19T17:13:57;96508.59;;;12.63;53.95
77631;BME280;66798;47.370;8.552;2023-04-19T17:16:23;96508.94;;;12.57;54.30
77631;BME280;66798;47.370;8.552;2023-04-19T17:18:48;96512.50;;;12.42;54.75
77631;BME280;66798;47.370;8.552;2023-04-19T17:21:14;96516.00;;;12.37;55.44
77631;BME280;66798;47.370;8.552;2023-04-19T17:23:41;96510.59;;;12.23;55.33
77631;BME280;66798;47.370;8.552;2023-04-19T17:26:08;96507.84;;;12.33;55.37
77631;BME280;66798;47.370;8.552;2023-04-19T17:28:35;96506.09;;;12.24;56.19
77631;BME280;66798;47.370;8.552;2023-04-19T17:31:01;96509.97;;;12.31;55.85
77631;BME280;66798;47.370;8.552;2023-04-19T17:33:26;96506.22;;;12.38;55.52
77631;BME280;66798;47.370;8.552;2023-04-19T17:35:52;96508.03;;;12.13;56.39
77631;BME280;66798;47.370;8.552;2023-04-19T17:38:17;96517.63;;;12.04;56.81
77631;BME280;66798;47.370;8.552;2023-04-19T17:40:43;96505.19;;;12.09;56.77
77631;BME280;66798;47.370;8.552;2023-04-19T17:43:09;96507.81;;;12.09;56.95
77631;BME280;66798;47.370;8.552;2023-04-19T17:45:35;96504.97;;;12.01;57.07
77631;BME280;66798;47.370;8.552;2023-04-19T17:48:00;96504.09;;;12.10;57.25
77631;BME280;66798;47.370;8.552;2023-04-19T17:50:26;96501.63;;;11.95;57.40
77631;BME280;66798;47.370;8.552;2023-04-19T17:52:53;96502.81;;;12.08;57.59
77631;BME280;66798;47.370;8.552;2023-04-19T17:55:19;96514.44;;;12.07;57.59
77631;BME280;66798;47.370;8.552;2023-04-19T17:57:45;96515.41;;;11.87;58.41
77631;BME280;66798;47.370;8.552;2023-04-19T18:00:11;96520.03;;;12.00;58.21
77631;BME280;66798;47.370;8.552;2023-04-19T18:02:37;96522.19;;;11.59;59.72
77631;BME280;66798;47.370;8.552;2023-04-19T18:05:02;96528.34;;;11.39;61.40
77631;BME280;66798;47.370;8.552;2023-04-19T18:07:28;96537.41;;;11.17;62.51
77631;BME280;66798;47.370;8.552;2023-04-19T18:09:54;96538.84;;;10.99;62.77
77631;BME280;66798;47.370;8.552;2023-04-19T18:12:19;96531.41;;;10.47;63.70
77631;BME280;66798;47.370;8.552;2023-04-19T18:14:44;96533.25;;;10.36;63.94
77631;BME280;66798;47.370;8.552;2023-04-19T18:17:10;96545.59;;;10.20;64.80
77631;BME280;66798;47.370;8.552;2023-04-19T18:19:35;96545.63;;;10.30;64.66
77631;BME280;66798;47.370;8.552;2023-04-19T18:22:01;96544.31;;;10.33;64.68
77631;BME280;66798;47.370;8.552;2023-04-19T18:24:27;96548.22;;;10.20;65.22
77631;BME280;66798;47.370;8.552;2023-04-19T18:26:53;96545.59;;;10.20;65.10
77631;BME280;66798;47.370;8.552;2023-04-19T18:29:18;96547.97;;;9.91;66.39
77631;BME280;66798;47.370;8.552;2023-04-19T18:31:45;96549.03;;;9.90;66.38
77631;BME280;66798;47.370;8.552;2023-04-19T18:34:10;96554.03;;;9.61;67.58
77631;BME280;66798;47.370;8.552;2023-04-19T18:36:36;96552.19;;;9.61;68.03
77631;BME280;66798;47.370;8.552;2023-04-19T18:39:01;96546.69;;;9.68;67.71